createdAt,value
2022-10-26T00:01:52.727Z,1.65
2022-10-26T00:06:54.910Z,2.47
2022-10-26T00:11:56.975Z,2.03
2022-10-26T00:16:59.167Z,1.80
2022-10-26T00:22:01.382Z,2.47
2022-10-26T00:27:03.492Z,1.83
2022-10-26T00:32:06.651Z,1.92
2022-10-26T00:37:09.666Z,1.70
2022-10-26T00:42:16.749Z,2.50
2022-10-26T00:47:35.615Z,2.10
2022-10-26T00:52:38.583Z,1.92
2022-10-26T00:57:41.474Z,2.25
2022-10-26T01:07:47.968Z,2.00
2022-10-26T01:12:51.382Z,1.92
2022-10-26T01:23:41.194Z,1.60
2022-10-26T01:29:01.270Z,1.80
2022-10-26T01:34:27.851Z,2.17
2022-10-26T01:39:53.868Z,1.75
2022-10-26T01:45:07.487Z,1.62
2022-10-26T01:50:11.454Z,2.72
2022-10-26T01:55:41.813Z,1.95
2022-10-26T02:00:55.656Z,1.70
2022-10-26T02:06:15.033Z,2.03
2022-10-26T02:11:30.921Z,2.17
2022-10-26T02:16:56.442Z,1.95
2022-10-26T02:22:07.259Z,2.40
2022-10-26T02:27:14.557Z,2.80
2022-10-26T02:32:18.615Z,2.12
2022-10-26T02:37:23.028Z,2.00
2022-10-26T02:42:26.851Z,1.70
2022-10-26T02:47:29.815Z,1.95
2022-10-26T02:52:44.194Z,2.60
2022-10-26T02:57:50.922Z,2.10
2022-10-26T03:02:57.266Z,2.00
2022-10-26T03:08:00.318Z,2.22
2022-10-26T03:13:03.622Z,2.67
2022-10-26T03:18:06.228Z,2.37
2022-10-26T03:23:08.362Z,2.22
2022-10-26T03:28:10.455Z,2.08
2022-10-26T03:33:13.170Z,2.08
2022-10-26T03:43:18.397Z,2.10
2022-10-26T03:48:20.416Z,1.58
2022-10-26T03:53:22.415Z,1.60
2022-10-26T04:03:31.510Z,1.60
2022-10-26T04:08:33.594Z,2.43
2022-10-26T04:13:35.807Z,2.47
2022-10-26T04:18:37.867Z,2.20
2022-10-26T04:23:39.859Z,2.17
2022-10-26T04:28:41.896Z,2.27
2022-10-26T04:33:43.954Z,1.60
2022-10-26T04:38:48.005Z,1.77
2022-10-26T04:43:50.213Z,1.35
2022-10-26T04:48:52.314Z,1.45
2022-10-26T04:53:55.525Z,2.20
2022-10-26T04:58:57.657Z,2.10
2022-10-26T05:03:59.706Z,1.40
2022-10-26T05:09:02.350Z,1.45
2022-10-26T05:14:04.510Z,6.72
2022-10-26T05:19:07.785Z,6.32
2022-10-26T05:24:11.704Z,2.57
2022-10-26T05:29:14.738Z,2.67
2022-10-26T05:34:16.786Z,2.70
2022-10-26T05:39:18.845Z,3.40
2022-10-26T05:44:20.877Z,2.78
2022-10-26T05:49:22.937Z,2.30
2022-10-26T05:54:25.166Z,2.10
2022-10-26T05:59:27.418Z,2.25
2022-10-26T06:04:38.749Z,2.65
2022-10-26T06:09:42.023Z,2.03
2022-10-26T06:14:44.507Z,2.45
2022-10-26T06:20:01.810Z,2.60
2022-10-26T06:25:38.594Z,2.33
2022-10-26T06:30:41.569Z,2.30
2022-10-26T06:36:05.730Z,1.98
2022-10-26T06:41:08.092Z,2.15
2022-10-26T06:46:43.626Z,3.05
2022-10-26T06:51:59.639Z,2.60
2022-10-26T06:57:02.049Z,2.40
2022-10-26T07:02:06.518Z,2.12
2022-10-26T07:07:18.013Z,2.42
2022-10-26T07:12:20.362Z,2.15
2022-10-26T07:17:22.477Z,2.85
2022-10-26T07:22:25.236Z,2.12
2022-10-26T07:32:30.272Z,2.30
2022-10-26T07:37:32.431Z,2.58
2022-10-26T07:42:36.498Z,3.67
2022-10-26T07:47:38.773Z,2.25
2022-10-26T07:52:41.743Z,2.75
2022-10-26T07:57:43.866Z,2.67
2022-10-26T08:02:46.069Z,2.53
2022-10-26T08:07:48.624Z,2.72
2022-10-26T08:12:53.739Z,2.25
2022-10-26T08:17:55.889Z,3.40
2022-10-26T08:22:59.445Z,3.53
2022-10-26T08:28:03.380Z,2.97
2022-10-26T08:33:08.177Z,2.87
2022-10-26T08:38:10.256Z,2.78
2022-10-26T08:43:17.590Z,2.75
2022-10-26T08:48:27.350Z,3.12
2022-10-26T08:53:40.461Z,2.92
2022-10-26T09:03:50.112Z,3.12
2022-10-26T09:14:05.364Z,3.53
2022-10-26T09:19:30.459Z,3.17
2022-10-26T09:24:34.164Z,4.93
2022-10-26T09:29:42.069Z,3.62
2022-10-26T09:34:53.809Z,2.80
2022-10-26T09:40:10.726Z,4.03
2022-10-26T09:45:18.738Z,2.17
2022-10-26T09:50:38.978Z,2.60
2022-10-26T09:55:45.059Z,2.55
2022-10-26T10:00:47.961Z,1.75
2022-10-26T10:05:51.760Z,2.33
2022-10-26T10:10:55.882Z,1.55
2022-10-26T10:16:14.505Z,1.95
2022-10-26T10:21:16.571Z,1.83
2022-10-26T10:26:18.701Z,1.90
2022-10-26T10:31:26.880Z,2.42
2022-10-26T10:36:30.298Z,1.67
2022-10-26T10:41:36.563Z,2.30
2022-10-26T10:46:38.976Z,1.62
2022-10-26T10:56:53.152Z,1.87
2022-10-26T11:02:19.899Z,2.20
2022-10-26T11:07:24.225Z,1.58
2022-10-26T11:13:00.912Z,1.87
2022-10-26T11:18:14.141Z,2.10
2022-10-26T11:23:49.241Z,2.03
2022-10-26T11:29:28.878Z,1.83
2022-10-26T11:34:50.871Z,1.73
2022-10-26T11:40:03.976Z,1.70
2022-10-26T11:45:15.658Z,1.25
2022-10-26T11:50:29.400Z,1.25
2022-10-26T11:55:31.933Z,1.55
2022-10-26T12:05:51.301Z,1.20
2022-10-26T12:11:02.187Z,1.85
2022-10-26T12:16:21.878Z,0.88
2022-10-26T12:21:29.629Z,1.80
2022-10-26T12:26:34.593Z,1.40
2022-10-26T12:31:36.744Z,1.65
2022-10-26T12:37:11.377Z,1.75
2022-10-26T12:42:16.427Z,1.23
2022-10-26T12:47:30.691Z,1.30
2022-10-26T12:52:56.329Z,1.50
2022-10-26T12:58:32.512Z,1.80
2022-10-26T13:03:56.389Z,0.90
2022-10-26T13:09:00.129Z,1.67
2022-10-26T13:14:08.956Z,0.90
2022-10-26T13:19:38.145Z,1.20
2022-10-26T13:24:48.837Z,1.20
2022-10-26T13:30:09.442Z,1.17
2022-10-26T13:35:16.287Z,1.25
2022-10-26T13:40:22.001Z,1.33
2022-10-26T13:45:33.653Z,0.85
2022-10-26T13:50:53.598Z,1.25
2022-10-26T13:56:08.679Z,1.50
2022-10-26T14:01:11.584Z,1.52
2022-10-26T14:06:17.333Z,1.83
2022-10-26T14:11:30.919Z,1.90
2022-10-26T14:16:34.623Z,1.20
2022-10-26T14:21:40.477Z,1.75
2022-10-26T14:26:42.639Z,1.87
2022-10-26T14:36:58.478Z,1.42
2022-10-26T14:42:08.268Z,1.00
2022-10-26T14:47:31.856Z,1.33
2022-10-26T14:52:36.496Z,1.10
2022-10-26T14:57:41.022Z,1.20
2022-10-26T15:02:49.108Z,1.73
2022-10-26T15:07:53.192Z,1.70
2022-10-26T15:12:55.542Z,0.93
2022-10-26T15:17:59.638Z,1.05
2022-10-26T15:23:03.505Z,1.27
2022-10-26T15:28:30.640Z,1.23
2022-10-26T15:33:34.679Z,2.00
2022-10-26T15:38:37.013Z,1.30
2022-10-26T15:43:39.132Z,0.75
2022-10-26T15:48:41.998Z,0.93
2022-10-26T15:53:44.121Z,1.08
2022-10-26T15:58:46.585Z,0.77
2022-10-26T16:08:53.675Z,1.90
2022-10-26T16:13:58.382Z,1.50
2022-10-26T16:19:29.331Z,1.15
2022-10-26T16:24:26.651Z,1.73
2022-10-26T16:29:29.749Z,1.60
2022-10-26T16:34:31.842Z,0.93
2022-10-26T16:39:33.961Z,1.62
2022-10-26T16:44:37.887Z,1.92
2022-10-26T16:49:43.145Z,2.65
2022-10-26T16:54:45.549Z,1.48
2022-10-26T16:59:48.066Z,2.10
2022-10-26T17:04:50.300Z,1.95
2022-10-26T17:09:52.337Z,2.08
2022-10-26T17:14:56.127Z,1.58
2022-10-26T17:19:58.204Z,1.73
2022-10-26T17:25:00.633Z,1.90
2022-10-26T17:30:03.242Z,1.80
2022-10-26T17:40:08.304Z,1.45
2022-10-26T17:50:12.638Z,1.48
2022-10-26T17:55:14.788Z,1.75
2022-10-26T18:00:18.156Z,1.95
2022-10-26T18:05:20.208Z,1.75
2022-10-26T18:10:38.366Z,1.97
2022-10-26T18:15:40.813Z,2.03
2022-10-26T18:20:42.921Z,1.30
2022-10-26T18:25:45.072Z,1.48
2022-10-26T18:30:47.152Z,1.30
2022-10-26T18:35:49.248Z,1.10
2022-10-26T18:40:53.399Z,2.15
2022-10-26T18:46:06.664Z,2.62
2022-10-26T18:56:21.163Z,2.72
2022-10-26T19:01:26.769Z,2.87
2022-10-26T19:06:31.761Z,2.30
2022-10-26T19:11:34.505Z,1.98
2022-10-26T19:21:54.539Z,2.10
2022-10-26T19:26:57.052Z,2.20
2022-10-26T19:31:59.599Z,1.83
2022-10-26T19:37:01.760Z,2.40
2022-10-26T19:42:03.893Z,2.30
2022-10-26T19:47:06.073Z,2.87
2022-10-26T19:52:08.200Z,2.55
2022-10-26T19:57:10.350Z,1.77
2022-10-26T20:02:12.364Z,1.77
2022-10-26T20:07:15.763Z,2.17
2022-10-26T20:12:17.881Z,1.85
2022-10-26T20:17:19.993Z,1.60
2022-10-26T20:22:22.119Z,2.92
2022-10-26T20:27:24.206Z,3.70
2022-10-26T20:32:26.250Z,4.25
2022-10-26T20:37:28.618Z,4.45
2022-10-26T20:42:30.884Z,4.18
2022-10-26T20:47:33.196Z,3.78
2022-10-26T20:52:56.584Z,3.90
2022-10-26T20:58:11.142Z,2.50
2022-10-26T21:03:13.256Z,3.12
2022-10-26T21:08:15.356Z,2.87
2022-10-26T21:13:17.812Z,3.55
2022-10-26T21:18:19.989Z,2.95
2022-10-26T21:23:22.051Z,2.30
2022-10-26T21:28:24.274Z,3.92
2022-10-26T21:33:31.868Z,4.15
2022-10-26T21:38:34.694Z,5.80
2022-10-26T21:43:38.484Z,4.35
2022-10-26T21:48:41.076Z,3.75
2022-10-26T21:53:44.075Z,4.55
2022-10-26T21:58:46.782Z,3.25
2022-10-26T22:13:55.199Z,2.90
2022-10-26T22:18:59.448Z,2.87
2022-10-26T22:24:01.945Z,2.15
2022-10-26T22:29:04.518Z,3.00
2022-10-26T22:34:10.825Z,1.58
2022-10-26T22:39:12.953Z,1.10
2022-10-26T22:44:14.973Z,1.50
2022-10-26T22:49:17.125Z,1.50
2022-10-26T22:54:19.814Z,1.30
2022-10-26T23:04:24.283Z,1.43
2022-10-26T23:09:26.312Z,1.20
2022-10-26T23:14:28.365Z,1.50
2022-10-26T23:19:30.421Z,2.23
2022-10-26T23:24:32.462Z,1.20
2022-10-26T23:29:34.516Z,1.33
2022-10-26T23:34:36.614Z,1.52
2022-10-26T23:39:38.642Z,2.37
2022-10-26T23:44:40.722Z,2.65
2022-10-26T23:49:42.730Z,3.00
2022-10-26T23:54:44.815Z,2.63
2022-10-26T23:59:47.304Z,2.55
